createdAt,value
2022-08-17T00:01:20.779Z,84.62
2022-08-17T00:03:50.600Z,82.91
2022-08-17T00:06:24.365Z,83.05
2022-08-17T00:08:52.218Z,85.52
2022-08-17T00:11:23.819Z,85.15
2022-08-17T00:13:51.229Z,85.66
2022-08-17T00:16:57.094Z,86.30
2022-08-17T00:19:21.612Z,85.49
2022-08-17T00:22:29.950Z,85.65
2022-08-17T00:24:34.471Z,85.03
2022-08-17T00:27:01.737Z,86.43
2022-08-17T00:29:28.090Z,86.11
2022-08-17T00:31:54.469Z,86.41
2022-08-17T00:34:20.832Z,86.18
2022-08-17T00:36:47.251Z,86.09
2022-08-17T00:39:13.674Z,85.07
2022-08-17T00:41:42.378Z,85.35
2022-08-17T00:44:09.651Z,85.05
2022-08-17T00:46:38.179Z,84.54
2022-08-17T00:49:04.861Z,85.46
2022-08-17T00:51:31.173Z,85.13
2022-08-17T00:54:09.023Z,85.20
2022-08-17T00:56:36.743Z,84.13
2022-08-17T00:59:04.131Z,84.00
2022-08-17T01:01:30.582Z,84.86
2022-08-17T01:03:57.063Z,85.25
2022-08-17T01:06:28.286Z,84.72
2022-08-17T01:08:57.350Z,85.33
2022-08-17T01:11:24.398Z,84.40
2022-08-17T01:13:50.765Z,83.21
2022-08-17T01:16:20.167Z,83.49
2022-08-17T01:18:47.060Z,84.47
2022-08-17T01:21:16.006Z,82.36
2022-08-17T01:23:42.427Z,82.13
2022-08-17T01:26:08.794Z,82.27
2022-08-17T01:28:52.962Z,82.11
2022-08-17T01:31:21.547Z,83.00
2022-08-17T01:33:47.930Z,82.64
2022-08-17T01:36:14.329Z,84.09
2022-08-17T01:38:40.723Z,84.95
2022-08-17T01:41:09.422Z,86.44
2022-08-17T01:43:41.644Z,85.92
2022-08-17T01:46:08.093Z,84.78
2022-08-17T01:48:35.235Z,84.24
2022-08-17T01:51:01.642Z,84.74
2022-08-17T01:53:29.863Z,83.74
2022-08-17T01:55:57.473Z,85.10
2022-08-17T01:58:23.874Z,85.84
2022-08-17T02:00:59.964Z,85.68
2022-08-17T02:03:27.916Z,86.26
2022-08-17T02:05:54.404Z,86.26
2022-08-17T02:08:20.803Z,87.19
2022-08-17T02:11:04.380Z,88.43
2022-08-17T02:13:38.074Z,88.48
2022-08-17T02:16:04.435Z,89.61
2022-08-17T02:18:30.809Z,88.50
2022-08-17T02:20:57.176Z,89.49
2022-08-17T02:23:23.876Z,89.78
2022-08-17T02:25:50.278Z,90.69
2022-08-17T02:28:16.965Z,89.37
2022-08-17T02:31:01.694Z,89.26
2022-08-17T02:33:42.756Z,89.54
2022-08-17T02:36:10.048Z,90.93
2022-08-17T02:38:36.824Z,92.27
2022-08-17T02:41:03.258Z,92.60
2022-08-17T02:43:29.824Z,94.00
2022-08-17T02:45:56.215Z,93.04
2022-08-17T02:48:29.698Z,91.48
2022-08-17T02:50:58.091Z,92.88
2022-08-17T02:53:24.492Z,93.57
2022-08-17T02:55:52.402Z,93.69
2022-08-17T02:58:35.302Z,90.78
2022-08-17T03:01:03.501Z,89.20
2022-08-17T03:03:29.920Z,93.16
2022-08-17T03:05:56.368Z,92.42
2022-08-17T03:08:23.347Z,92.96
2022-08-17T03:10:50.420Z,92.85
2022-08-17T03:13:17.081Z,93.24
2022-08-17T03:15:45.137Z,94.45
2022-08-17T03:18:18.885Z,95.16
2022-08-17T03:20:51.570Z,95.70
2022-08-17T03:23:18.668Z,94.87
2022-08-17T03:25:50.372Z,96.21
2022-08-17T03:28:19.660Z,94.39
2022-08-17T03:30:46.043Z,94.13
2022-08-17T03:33:12.418Z,93.98
2022-08-17T03:35:40.258Z,96.05
2022-08-17T03:38:06.935Z,95.47
2022-08-17T03:40:55.559Z,95.85
2022-08-17T03:43:20.228Z,95.33
2022-08-17T03:46:05.827Z,94.89
2022-08-17T03:48:56.335Z,93.36
2022-08-17T03:51:42.096Z,92.32
2022-08-17T03:54:27.221Z,90.17
2022-08-17T03:57:11.703Z,90.62
2022-08-17T03:59:38.200Z,91.55
2022-08-17T04:02:08.967Z,89.27
2022-08-17T04:04:35.757Z,89.43
2022-08-17T04:07:02.225Z,90.71
2022-08-17T04:09:28.593Z,92.22
2022-08-17T04:11:54.987Z,90.27
2022-08-17T04:14:23.621Z,90.26
2022-08-17T04:16:49.990Z,90.35
2022-08-17T04:19:16.372Z,89.87
2022-08-17T04:21:42.790Z,88.35
2022-08-17T04:24:09.185Z,90.00
2022-08-17T04:26:52.210Z,91.92
2022-08-17T04:29:21.329Z,91.18
2022-08-17T04:31:48.027Z,89.95
2022-08-17T04:34:14.407Z,92.46
2022-08-17T04:36:50.093Z,92.10
2022-08-17T04:39:17.000Z,91.80
2022-08-17T04:42:02.049Z,93.02
2022-08-17T04:44:37.040Z,92.43
2022-08-17T04:47:04.330Z,90.92
2022-08-17T04:49:30.742Z,87.88
2022-08-17T04:51:59.085Z,89.12
2022-08-17T04:54:28.949Z,89.19
2022-08-17T04:56:55.346Z,90.21
2022-08-17T04:59:21.733Z,91.83
2022-08-17T05:01:50.145Z,90.99
2022-08-17T05:04:21.113Z,90.39
2022-08-17T05:07:01.094Z,90.46
2022-08-17T05:09:27.503Z,92.14
2022-08-17T05:11:53.896Z,92.68
2022-08-17T05:14:22.604Z,91.04
2022-08-17T05:16:59.649Z,91.59
2022-08-17T05:19:27.638Z,91.86
2022-08-17T05:21:54.002Z,92.62
2022-08-17T05:24:42.895Z,93.06
2022-08-17T05:27:06.955Z,93.92
2022-08-17T05:29:35.213Z,94.56
2022-08-17T05:32:38.322Z,95.14
2022-08-17T05:35:00.148Z,95.41
2022-08-17T05:37:26.549Z,93.93
2022-08-17T05:39:53.633Z,93.03
2022-08-17T05:42:20.139Z,93.57
2022-08-17T05:44:46.657Z,91.55
2022-08-17T05:47:13.019Z,92.36
2022-08-17T05:49:39.409Z,91.41
2022-08-17T05:52:24.874Z,90.99
2022-08-17T05:54:57.232Z,91.36
2022-08-17T05:57:53.328Z,85.38
2022-08-17T06:00:30.158Z,85.93
2022-08-17T06:03:19.424Z,84.33
2022-08-17T06:05:45.732Z,86.97
2022-08-17T06:08:24.982Z,87.37
2022-08-17T06:11:06.775Z,87.49
2022-08-17T06:14:05.617Z,85.21
2022-08-17T06:16:36.225Z,85.97
2022-08-17T06:19:04.307Z,81.70
2022-08-17T06:21:32.912Z,80.91
2022-08-17T06:24:00.522Z,81.99
2022-08-17T06:26:31.238Z,81.94
2022-08-17T06:29:08.895Z,83.59
2022-08-17T06:31:45.257Z,82.42
2022-08-17T06:34:12.014Z,81.46
2022-08-17T06:36:44.610Z,80.35
2022-08-17T06:39:29.114Z,77.53
2022-08-17T06:41:58.658Z,78.67
2022-08-17T06:44:49.825Z,77.66
2022-08-17T06:47:28.101Z,76.70
2022-08-17T06:49:59.268Z,76.91
2022-08-17T06:52:45.974Z,75.77
2022-08-17T06:55:37.848Z,75.23
2022-08-17T06:58:16.112Z,74.54
2022-08-17T07:00:43.739Z,74.20
2022-08-17T07:03:20.900Z,72.64
2022-08-17T07:05:51.693Z,71.93
2022-08-17T07:08:35.144Z,73.80
2022-08-17T07:11:02.484Z,72.49
2022-08-17T07:13:42.145Z,72.91
2022-08-17T07:16:14.998Z,75.48
2022-08-17T07:18:41.392Z,74.31
2022-08-17T07:21:27.899Z,74.59
2022-08-17T07:24:07.276Z,73.70
2022-08-17T07:26:33.724Z,73.79
2022-08-17T07:29:00.115Z,73.15
2022-08-17T07:31:26.522Z,72.82
2022-08-17T07:34:14.444Z,72.07
2022-08-17T07:36:42.030Z,72.08
2022-08-17T07:39:08.466Z,71.63
2022-08-17T07:41:57.941Z,69.51
2022-08-17T07:44:25.739Z,70.38
2022-08-17T07:47:10.760Z,69.15
2022-08-17T07:49:38.150Z,71.43
2022-08-17T07:52:24.326Z,69.61
2022-08-17T07:54:54.948Z,67.88
2022-08-17T07:57:25.414Z,67.10
2022-08-17T08:00:01.957Z,66.43
2022-08-17T08:02:38.811Z,67.02
2022-08-17T08:05:13.607Z,66.59
2022-08-17T08:07:54.249Z,64.40
2022-08-17T08:10:27.613Z,62.99
2022-08-17T08:13:04.287Z,62.21
2022-08-17T08:15:54.251Z,62.29
2022-08-17T08:18:53.422Z,60.96
2022-08-17T08:21:38.023Z,62.04
2022-08-17T08:24:12.996Z,64.06
2022-08-17T08:26:39.308Z,60.01
2022-08-17T08:29:22.524Z,60.36
2022-08-17T08:31:58.013Z,60.18
2022-08-17T08:35:02.246Z,60.72
2022-08-17T08:37:49.941Z,56.84
2022-08-17T08:40:33.721Z,56.69
2022-08-17T08:43:12.601Z,57.57
2022-08-17T08:45:38.899Z,57.09
2022-08-17T08:48:22.851Z,55.84
2022-08-17T08:51:16.445Z,53.04
2022-08-17T08:54:03.827Z,54.12
2022-08-17T08:56:36.383Z,54.56
2022-08-17T08:59:10.508Z,53.00
2022-08-17T09:01:38.028Z,54.02
2022-08-17T09:04:20.002Z,55.96
2022-08-17T09:07:08.514Z,53.46
2022-08-17T09:09:38.343Z,55.37
2022-08-17T09:12:31.486Z,53.40
2022-08-17T09:15:01.172Z,53.95
2022-08-17T09:17:33.248Z,53.92
2022-08-17T09:20:27.982Z,53.33
2022-08-17T09:23:00.064Z,52.06
2022-08-17T09:25:28.392Z,53.08
2022-08-17T09:28:05.370Z,52.21
2022-08-17T09:30:36.296Z,51.54
2022-08-17T09:33:04.678Z,52.38
2022-08-17T09:35:36.858Z,52.77
2022-08-17T09:38:04.039Z,52.47
2022-08-17T09:40:49.462Z,50.82
2022-08-17T09:43:28.163Z,52.87
2022-08-17T09:45:59.008Z,51.19
2022-08-17T09:48:31.039Z,51.35
2022-08-17T09:51:13.953Z,50.48
2022-08-17T09:53:40.599Z,51.01
2022-08-17T09:56:06.941Z,49.48
2022-08-17T09:58:37.178Z,50.74
2022-08-17T10:01:08.254Z,48.49
2022-08-17T10:03:34.630Z,49.07
2022-08-17T10:06:06.476Z,50.09
2022-08-17T10:08:33.840Z,48.79
2022-08-17T10:11:19.308Z,49.16
2022-08-17T10:13:53.192Z,50.17
2022-08-17T10:16:30.408Z,49.76
2022-08-17T10:19:02.041Z,47.70
2022-08-17T10:21:47.259Z,47.13
2022-08-17T10:24:32.482Z,49.57
2022-08-17T10:26:59.764Z,47.35
2022-08-17T10:29:44.168Z,45.51
2022-08-17T10:32:28.260Z,45.53
2022-08-17T10:35:01.697Z,45.27
2022-08-17T10:37:32.312Z,45.93
2022-08-17T10:40:11.123Z,46.58
2022-08-17T10:42:42.639Z,46.54
2022-08-17T10:45:26.682Z,47.61
2022-08-17T10:47:56.118Z,46.88
2022-08-17T10:50:42.762Z,47.10
2022-08-17T10:53:09.156Z,47.87
2022-08-17T10:55:35.535Z,45.95
2022-08-17T10:58:20.923Z,46.36
2022-08-17T11:00:53.432Z,48.34
2022-08-17T11:03:21.162Z,46.77
2022-08-17T11:05:47.509Z,45.18
2022-08-17T11:08:18.896Z,45.29
2022-08-17T11:10:51.702Z,46.36
2022-08-17T11:13:24.520Z,44.82
2022-08-17T11:16:08.138Z,46.78
2022-08-17T11:18:46.484Z,46.04
2022-08-17T11:21:32.116Z,45.24
2022-08-17T11:24:05.023Z,44.80
2022-08-17T11:26:35.086Z,45.12
2022-08-17T11:29:06.284Z,45.59
2022-08-17T11:31:38.732Z,44.85
2022-08-17T11:34:07.897Z,45.43
2022-08-17T11:36:37.583Z,45.62
2022-08-17T11:39:27.257Z,44.06
2022-08-17T11:41:59.564Z,44.14
2022-08-17T11:44:32.253Z,45.85
2022-08-17T11:47:17.307Z,45.04
2022-08-17T11:50:15.613Z,44.90
2022-08-17T11:52:46.826Z,45.77
2022-08-17T11:55:37.500Z,46.34
2022-08-17T11:58:06.340Z,42.35
2022-08-17T12:00:44.971Z,42.64
2022-08-17T12:03:30.452Z,43.70
2022-08-17T12:06:04.363Z,45.41
2022-08-17T12:08:32.615Z,44.38
2022-08-17T12:11:00.737Z,45.34
2022-08-17T12:13:38.743Z,44.10
2022-08-17T12:16:07.240Z,44.55
2022-08-17T12:18:35.789Z,44.81
2022-08-17T12:21:13.331Z,43.76
2022-08-17T12:23:42.003Z,43.65
2022-08-17T12:26:19.361Z,44.22
2022-08-17T12:28:46.994Z,45.08
2022-08-17T12:31:34.362Z,43.71
2022-08-17T12:34:00.802Z,45.10
2022-08-17T12:36:28.351Z,44.54
2022-08-17T12:38:59.467Z,45.11
2022-08-17T12:41:41.120Z,45.04
2022-08-17T12:44:12.899Z,47.98
2022-08-17T12:46:51.487Z,43.94
2022-08-17T12:49:26.963Z,47.99
2022-08-17T12:52:02.551Z,46.60
2022-08-17T12:54:39.596Z,44.88
2022-08-17T12:57:09.553Z,44.57
2022-08-17T12:59:36.452Z,44.14
2022-08-17T13:02:02.978Z,44.76
2022-08-17T13:04:29.619Z,45.52
2022-08-17T13:06:59.870Z,45.73
2022-08-17T13:09:35.899Z,45.35
2022-08-17T13:12:07.877Z,45.58
2022-08-17T13:14:35.130Z,46.48
2022-08-17T13:17:01.687Z,46.93
2022-08-17T13:19:38.863Z,48.65
2022-08-17T13:22:09.212Z,48.11
2022-08-17T13:24:37.999Z,46.79
2022-08-17T13:27:08.258Z,47.30
2022-08-17T13:29:38.913Z,50.61
2022-08-17T13:32:09.622Z,51.19
2022-08-17T13:35:05.872Z,50.82
2022-08-17T13:37:34.593Z,48.58
2022-08-17T13:40:10.221Z,49.25
2022-08-17T13:42:52.316Z,48.91
2022-08-17T13:45:35.165Z,47.53
2022-08-17T13:48:08.550Z,49.54
2022-08-17T13:50:41.312Z,46.83
2022-08-17T13:53:17.734Z,52.74
2022-08-17T13:55:58.091Z,53.53
2022-08-17T13:58:28.385Z,54.56
2022-08-17T14:00:56.179Z,55.49
2022-08-17T14:03:23.155Z,57.36
2022-08-17T14:05:50.150Z,55.40
2022-08-17T14:08:16.831Z,53.21
2022-08-17T14:10:45.503Z,55.59
2022-08-17T14:13:13.209Z,58.79
2022-08-17T14:15:54.950Z,55.43
2022-08-17T14:18:52.007Z,59.25
2022-08-17T14:21:09.171Z,54.85
2022-08-17T14:23:35.816Z,53.95
2022-08-17T14:26:02.199Z,53.41
2022-08-17T14:28:28.587Z,57.50
2022-08-17T14:30:55.435Z,56.64
2022-08-17T14:33:24.789Z,59.00
2022-08-17T14:35:53.465Z,61.98
2022-08-17T14:38:19.936Z,59.69
2022-08-17T14:40:46.434Z,60.80
2022-08-17T14:43:12.858Z,61.70
2022-08-17T14:45:39.234Z,60.88
2022-08-17T14:48:07.626Z,64.47
2022-08-17T14:50:38.856Z,63.15
2022-08-17T14:53:06.278Z,65.48
2022-08-17T14:55:32.886Z,67.03
2022-08-17T14:57:59.290Z,62.56
2022-08-17T15:00:26.738Z,63.59
2022-08-17T15:02:54.031Z,64.61
2022-08-17T15:05:21.229Z,61.62
2022-08-17T15:07:47.664Z,60.25
2022-08-17T15:10:14.271Z,61.84
2022-08-17T15:12:40.839Z,58.98
2022-08-17T15:15:07.928Z,59.60
2022-08-17T15:17:44.207Z,59.20
2022-08-17T15:20:16.734Z,60.53
2022-08-17T15:22:43.361Z,60.50
2022-08-17T15:25:10.561Z,62.23
2022-08-17T15:27:36.958Z,61.03
2022-08-17T15:30:04.895Z,59.61
2022-08-17T15:32:35.078Z,60.96
2022-08-17T15:35:01.972Z,61.60
2022-08-17T15:37:28.623Z,61.79
2022-08-17T15:39:55.185Z,61.42
2022-08-17T15:42:21.725Z,59.15
2022-08-17T15:44:48.315Z,61.83
2022-08-17T15:47:17.492Z,62.47
2022-08-17T15:49:45.368Z,64.69
2022-08-17T15:52:18.634Z,63.88
2022-08-17T15:54:51.532Z,64.82
2022-08-17T15:57:17.909Z,65.42
2022-08-17T15:59:44.541Z,66.14
2022-08-17T16:03:13.702Z,65.72
2022-08-17T16:05:10.254Z,66.87
2022-08-17T16:07:36.979Z,67.72
2022-08-17T16:10:04.042Z,67.49
2022-08-17T16:12:30.513Z,69.58
2022-08-17T16:14:56.952Z,69.66
2022-08-17T16:17:39.276Z,71.67
2022-08-17T16:20:07.668Z,73.43
2022-08-17T16:22:35.003Z,71.02
2022-08-17T16:25:02.360Z,69.35
2022-08-17T16:27:28.751Z,70.30
2022-08-17T16:29:55.487Z,71.22
2022-08-17T16:32:31.812Z,70.92
2022-08-17T16:35:03.413Z,69.97
2022-08-17T16:37:30.889Z,71.51
2022-08-17T16:40:00.687Z,73.60
2022-08-17T16:42:28.374Z,72.77
2022-08-17T16:44:55.056Z,73.61
2022-08-17T16:47:21.510Z,75.76
2022-08-17T16:49:48.347Z,74.59
2022-08-17T16:52:15.094Z,74.19
2022-08-17T16:54:59.215Z,73.66
2022-08-17T16:57:25.684Z,75.52
2022-08-17T16:59:53.218Z,74.94
2022-08-17T17:02:30.458Z,74.64
2022-08-17T17:05:09.266Z,74.68
2022-08-17T17:07:55.423Z,74.12
2022-08-17T17:10:26.844Z,72.76
2022-08-17T17:13:01.395Z,73.27
2022-08-17T17:15:31.937Z,73.12
2022-08-17T17:18:06.963Z,72.19
2022-08-17T17:20:36.437Z,72.59
2022-08-17T17:23:21.673Z,72.58
2022-08-17T17:25:51.011Z,72.92
2022-08-17T17:28:30.505Z,73.16
2022-08-17T17:31:08.146Z,71.65
2022-08-17T17:33:47.391Z,71.87
2022-08-17T17:36:20.858Z,71.89
2022-08-17T17:38:48.931Z,72.68
2022-08-17T17:41:25.328Z,74.23
2022-08-17T17:43:53.527Z,73.20
2022-08-17T17:46:28.459Z,72.54
2022-08-17T17:48:56.753Z,71.71
2022-08-17T17:52:09.201Z,72.43
2022-08-17T17:54:32.473Z,73.98
2022-08-17T17:57:10.984Z,73.88
2022-08-17T17:59:44.213Z,75.18
2022-08-17T18:02:10.723Z,75.74
2022-08-17T18:04:43.576Z,76.40
2022-08-17T18:07:12.947Z,77.82
2022-08-17T18:09:54.704Z,78.64
2022-08-17T18:12:31.320Z,78.06
2022-08-17T18:15:09.972Z,78.97
2022-08-17T18:17:36.431Z,79.88
2022-08-17T18:20:04.149Z,79.31
2022-08-17T18:22:31.285Z,78.45
2022-08-17T18:24:57.671Z,76.68
2022-08-17T18:27:34.085Z,75.08
2022-08-17T18:30:22.394Z,75.84
2022-08-17T18:32:48.844Z,77.77
2022-08-17T18:35:18.203Z,78.91
2022-08-17T18:37:45.078Z,80.41
2022-08-17T18:40:23.612Z,81.11
2022-08-17T18:43:08.841Z,81.72
2022-08-17T18:45:35.284Z,79.44
2022-08-17T18:48:01.934Z,78.37
2022-08-17T18:50:41.822Z,77.62
2022-08-17T18:53:30.170Z,76.57
2022-08-17T18:56:16.397Z,74.90
2022-08-17T18:58:42.809Z,77.09
2022-08-17T19:01:17.528Z,77.06
2022-08-17T19:03:46.482Z,75.94
2022-08-17T19:06:17.619Z,75.71
2022-08-17T19:08:44.424Z,76.27
2022-08-17T19:11:16.786Z,75.46
2022-08-17T19:13:52.266Z,75.57
2022-08-17T19:16:20.079Z,77.10
2022-08-17T19:18:48.664Z,80.29
2022-08-17T19:21:16.336Z,80.50
2022-08-17T19:23:53.698Z,80.98
2022-08-17T19:26:50.899Z,80.52
2022-08-17T19:29:41.528Z,80.92
2022-08-17T19:32:08.209Z,81.15
2022-08-17T19:34:34.826Z,83.08
2022-08-17T19:37:16.546Z,83.22
2022-08-17T19:39:46.083Z,81.90
2022-08-17T19:42:31.439Z,80.57
2022-08-17T19:45:03.087Z,81.68
2022-08-17T19:47:53.872Z,80.03
2022-08-17T19:50:22.511Z,79.51
2022-08-17T19:53:11.833Z,79.16
2022-08-17T19:55:43.659Z,77.96
2022-08-17T19:58:30.268Z,78.13
2022-08-17T20:00:56.741Z,79.15
2022-08-17T20:03:27.574Z,77.19
2022-08-17T20:06:12.231Z,77.10
2022-08-17T20:08:40.840Z,77.51
2022-08-17T20:11:11.515Z,79.21
2022-08-17T20:13:41.013Z,78.46
2022-08-17T20:16:07.382Z,79.58
2022-08-17T20:19:05.731Z,79.12
2022-08-17T20:21:35.630Z,78.92
2022-08-17T20:24:11.070Z,79.41
2022-08-17T20:26:58.073Z,79.69
2022-08-17T20:29:39.918Z,80.87
2022-08-17T20:32:14.976Z,81.82
2022-08-17T20:34:42.663Z,81.81
2022-08-17T20:37:09.108Z,82.17
2022-08-17T20:39:39.839Z,82.78
2022-08-17T20:42:09.213Z,83.64
2022-08-17T20:44:36.806Z,84.16
2022-08-17T20:47:26.927Z,84.97
2022-08-17T20:50:04.804Z,85.49
2022-08-17T20:52:42.317Z,86.40
2022-08-17T20:55:09.448Z,87.05
2022-08-17T20:57:35.801Z,87.29
2022-08-17T21:00:16.452Z,88.83
2022-08-17T21:02:47.274Z,89.64
2022-08-17T21:05:32.388Z,89.99
2022-08-17T21:10:27.267Z,90.03
2022-08-17T21:12:59.438Z,90.10
2022-08-17T21:18:00.769Z,90.37
2022-08-17T21:20:32.514Z,90.46
2022-08-17T21:23:02.275Z,90.97
2022-08-17T21:25:40.693Z,91.67
2022-08-17T21:28:14.112Z,92.68
2022-08-17T21:30:40.995Z,92.68
2022-08-17T21:33:17.012Z,92.80
2022-08-17T21:35:53.792Z,93.46
2022-08-17T21:38:57.688Z,94.03
2022-08-17T21:41:34.436Z,93.56
2022-08-17T21:44:05.573Z,94.40
2022-08-17T21:46:36.781Z,94.63
2022-08-17T21:49:13.811Z,95.18
2022-08-17T21:51:45.016Z,95.79
2022-08-17T21:54:35.433Z,96.42
2022-08-17T21:57:02.363Z,97.13
2022-08-17T21:59:32.925Z,97.34
2022-08-17T22:02:00.006Z,97.80
2022-08-17T22:04:29.472Z,98.34
2022-08-17T22:06:57.401Z,98.79
2022-08-17T22:09:34.613Z,98.91
2022-08-17T22:12:09.017Z,100.00
2022-08-17T22:14:51.495Z,100.00
2022-08-17T22:17:24.257Z,100.00
2022-08-17T22:19:55.765Z,100.00
2022-08-17T22:22:22.077Z,100.00
2022-08-17T22:24:57.548Z,100.00
2022-08-17T22:27:43.386Z,100.00
2022-08-17T22:30:22.724Z,100.00
2022-08-17T22:32:49.803Z,100.00
2022-08-17T22:35:16.205Z,100.00
2022-08-17T22:37:42.552Z,100.00
2022-08-17T22:40:09.086Z,100.00
2022-08-17T22:42:41.794Z,100.00
2022-08-17T22:45:08.292Z,100.00
2022-08-17T22:47:42.851Z,100.00
2022-08-17T22:50:13.871Z,100.00
2022-08-17T22:53:02.121Z,100.00
2022-08-17T22:55:48.308Z,100.00
2022-08-17T22:58:33.896Z,100.00
2022-08-17T23:01:18.950Z,100.00
2022-08-17T23:04:05.677Z,100.00
2022-08-17T23:06:33.801Z,100.00
2022-08-17T23:09:02.642Z,100.00
2022-08-17T23:11:36.844Z,100.00
2022-08-17T23:14:15.613Z,100.00
2022-08-17T23:16:44.916Z,100.00
2022-08-17T23:19:11.823Z,100.00
2022-08-17T23:21:38.193Z,100.00
2022-08-17T23:24:04.665Z,100.00
2022-08-17T23:26:33.066Z,100.00
2022-08-17T23:29:02.249Z,100.00
2022-08-17T23:31:28.884Z,100.00
2022-08-17T23:33:55.524Z,100.00
2022-08-17T23:36:23.602Z,100.00
2022-08-17T23:38:50.096Z,100.00
2022-08-17T23:41:17.144Z,100.00
2022-08-17T23:43:47.481Z,100.00
2022-08-17T23:46:14.055Z,100.00
2022-08-17T23:48:41.116Z,100.00
2022-08-17T23:51:34.628Z,100.00
2022-08-17T23:54:07.186Z,100.00
2022-08-17T23:56:37.722Z,100.00
2022-08-17T23:59:04.095Z,100.00
